Time;durP1;ratioP1;P1;durP2;ratioP2;P2;SDS_P1;SDS_P2;PMS_P1;PMS_P2;Temp;Humidity;BMP_temperature;BMP_pressure;BME280_temperature;BME280_humidity;BME280_pressure;Samples;Min_cycle;Max_cycle;Signal;HPM_P1;HPM_P2
2022/12/14 00:00:44;;;;;;;94.18;53.40;;;-4.30;99.90;;;;;;5079131;28;20040;-63
2022/12/14 00:03:10;;;;;;;95.85;53.42;;;-4.40;99.90;;;;;;5077158;28;20417;-63
2022/12/14 00:05:36;;;;;;;95.45;52.08;;;-4.10;99.90;;;;;;5076244;28;20132;-63
2022/12/14 00:08:01;;;;;;;98.70;54.75;;;-4.20;99.90;;;;;;5078729;28;20359;-63
2022/12/14 00:10:28;;;;;;;100.63;55.90;;;-4.50;99.90;;;;;;5058122;28;20126;-63
2022/12/14 00:12:53;;;;;;;98.60;54.58;;;-4.10;99.90;;;;;;5059068;28;20054;-63
2022/12/14 00:15:19;;;;;;;95.22;51.95;;;-4.20;99.90;;;;;;5077513;28;20048;-64
2022/12/14 00:17:45;;;;;;;98.05;55.08;;;-4.60;99.90;;;;;;5076989;28;20160;-62
2022/12/14 00:20:10;;;;;;;97.32;54.53;;;-4.40;99.90;;;;;;5076781;28;20500;-62
2022/12/14 00:22:36;;;;;;;98.43;55.63;;;-4.70;99.90;;;;;;5078670;28;20044;-63
2022/12/14 00:25:02;;;;;;;95.55;53.28;;;-4.60;99.90;;;;;;5077975;28;20040;-64
2022/12/14 00:27:28;;;;;;;97.53;54.35;;;-4.60;99.90;;;;;;5075466;28;20114;-63
2022/12/14 00:29:53;;;;;;;97.55;54.80;;;-4.60;99.90;;;;;;5075555;28;20040;-64
2022/12/14 00:32:19;;;;;;;102.93;55.85;;;-4.40;99.90;;;;;;5078432;28;20048;-64
2022/12/14 00:34:45;;;;;;;102.10;55.78;;;-4.30;99.90;;;;;;5076411;28;20071;-64
2022/12/14 00:37:10;;;;;;;96.25;54.70;;;-4.40;99.90;;;;;;5074745;28;20035;-65
2022/12/14 00:39:36;;;;;;;104.90;54.92;;;-4.40;99.90;;;;;;5077912;28;20467;-63
2022/12/14 00:42:02;;;;;;;105.18;57.28;;;-4.80;99.90;;;;;;5076100;28;20059;-63
2022/12/14 00:44:27;;;;;;;101.95;54.38;;;-4.70;99.90;;;;;;5076443;28;20036;-63
2022/12/14 00:46:53;;;;;;;102.55;54.05;;;-4.80;99.90;;;;;;5060176;28;20472;-66
2022/12/14 00:49:19;;;;;;;98.72;54.00;;;-5.00;99.90;;;;;;5075492;28;20285;-65
2022/12/14 00:51:44;;;;;;;102.70;55.22;;;-4.60;99.90;;;;;;5075671;28;20105;-64
2022/12/14 00:54:10;;;;;;;105.57;54.97;;;-4.70;99.90;;;;;;5078311;28;20112;-64
2022/12/14 00:56:36;;;;;;;110.57;57.28;;;-4.70;99.90;;;;;;5077768;28;20063;-64
2022/12/14 00:59:01;;;;;;;108.70;55.70;;;-4.60;99.90;;;;;;5071700;28;20059;-64
2022/12/14 01:01:29;;;;;;;104.25;57.78;;;-5.20;99.90;;;;;;5076919;28;20148;-64
2022/12/14 01:04:15;;;;;;;108.40;56.45;;;-5.00;99.90;;;;;;5077120;28;20050;-63
2022/12/14 01:06:42;;;;;;;112.45;58.33;;;-4.90;99.90;;;;;;5074784;28;20069;-63
2022/12/14 01:09:08;;;;;;;113.07;57.65;;;-4.80;99.90;;;;;;5077383;28;20076;-64
2022/12/14 01:11:34;;;;;;;106.80;57.22;;;-4.90;99.90;;;;;;5076879;28;20553;-62
2022/12/14 01:14:00;;;;;;;109.45;58.67;;;-5.20;99.90;;;;;;5072049;28;20403;-64
2022/12/14 01:16:26;;;;;;;108.80;55.90;;;-4.70;99.90;;;;;;5089507;28;20131;-65
2022/12/14 01:18:51;;;;;;;112.32;58.60;;;-5.20;99.90;;;;;;5058463;28;20044;-64
2022/12/14 01:21:20;;;;;;;113.07;59.10;;;-4.90;99.90;;;;;;5058590;28;20075;-64
2022/12/14 01:23:50;;;;;;;109.10;56.53;;;-5.20;99.90;;;;;;5074483;28;20044;-63
2022/12/14 01:26:17;;;;;;;111.78;59.50;;;-5.30;99.90;;;;;;5106355;27;20131;-63
2022/12/14 01:28:47;;;;;;;109.82;56.80;;;-5.00;99.90;;;;;;5077249;28;20101;-63
2022/12/14 01:31:18;;;;;;;118.43;59.08;;;-5.30;99.90;;;;;;5071948;28;20044;-64
2022/12/14 01:33:44;;;;;;;116.22;59.28;;;-5.10;99.90;;;;;;5075761;28;20779;-64
2022/12/14 01:36:13;;;;;;;107.38;56.90;;;-5.10;99.90;;;;;;5075162;28;20040;-64
2022/12/14 01:38:38;;;;;;;113.03;60.33;;;-5.10;99.90;;;;;;5075062;28;20074;-64
2022/12/14 01:41:05;;;;;;;101.90;54.78;;;-4.80;99.90;;;;;;5107439;27;20052;-64
2022/12/14 01:44:13;;;;;;;115.75;61.15;;;-5.00;99.90;;;;;;5075686;28;20051;-63
2022/12/14 01:46:48;;;;;;;112.40;57.95;;;-4.80;99.90;;;;;;5032833;28;20052;-63
2022/12/14 01:49:20;;;;;;;110.32;58.05;;;-5.00;99.90;;;;;;5076043;28;20039;-64
2022/12/14 01:51:54;;;;;;;107.57;57.45;;;-5.20;99.90;;;;;;5074845;28;20052;-64
2022/12/14 01:54:21;;;;;;;114.03;57.70;;;-4.90;99.90;;;;;;5061544;28;20055;-63
2022/12/14 01:56:47;;;;;;;106.82;56.20;;;-5.20;99.90;;;;;;5041807;28;20040;-63
2022/12/14 01:59:26;;;;;;;108.60;55.42;;;-5.40;99.90;;;;;;5075517;28;20049;-64
2022/12/14 02:01:52;;;;;;;108.63;56.42;;;-5.50;99.90;;;;;;5070706;28;20044;-63
2022/12/14 02:04:19;;;;;;;119.47;59.45;;;-5.50;99.90;;;;;;5078066;28;20348;-62
2022/12/14 02:06:47;;;;;;;116.20;60.05;;;-5.40;99.90;;;;;;5079543;28;20549;-64
2022/12/14 02:09:19;;;;;;;117.13;58.85;;;-5.40;99.90;;;;;;5078309;28;20317;-64
2022/12/14 02:12:01;;;;;;;119.05;59.53;;;-5.40;99.90;;;;;;5080083;28;20176;-64
2022/12/14 02:14:27;;;;;;;116.00;59.53;;;-5.30;99.90;;;;;;5093059;28;20051;-64
2022/12/14 02:16:55;;;;;;;111.65;56.25;;;-5.20;99.90;;;;;;5075793;28;20040;-64
2022/12/14 02:19:21;;;;;;;113.03;57.88;;;-5.60;99.90;;;;;;5079042;28;20548;-64
2022/12/14 02:22:04;;;;;;;115.90;60.75;;;-5.40;99.90;;;;;;5078727;28;20051;-63
2022/12/14 02:24:45;;;;;;;115.50;57.80;;;-5.60;99.90;;;;;;5076881;28;20096;-64
2022/12/14 02:27:29;;;;;;;108.22;58.08;;;-5.40;99.90;;;;;;5080051;28;20036;-64
2022/12/14 02:30:05;;;;;;;120.22;58.08;;;-5.60;99.90;;;;;;5080476;28;20047;-64
2022/12/14 02:33:00;;;;;;;122.28;61.03;;;-5.70;99.90;;;;;;5075558;28;20415;-63
2022/12/14 02:35:28;;;;;;;126.28;61.53;;;-5.70;99.90;;;;;;5080397;28;20040;-64
2022/12/14 02:38:27;;;;;;;121.75;59.63;;;-5.30;99.90;;;;;;5079700;28;20131;-64
2022/12/14 02:40:52;;;;;;;118.20;58.85;;;-5.20;99.90;;;;;;5059330;28;20063;-63
2022/12/14 02:43:41;;;;;;;117.05;58.33;;;-5.50;99.90;;;;;;5079577;28;20052;-63
2022/12/14 02:46:27;;;;;;;113.53;58.28;;;-5.40;99.90;;;;;;5062457;28;20417;-64
2022/12/14 02:48:56;;;;;;;115.78;59.35;;;-5.40;99.90;;;;;;5058269;28;20051;-64
2022/12/14 02:51:49;;;;;;;113.18;59.33;;;-5.60;99.90;;;;;;5061878;28;20105;-63
2022/12/14 02:54:28;;;;;;;123.07;60.80;;;-5.60;99.90;;;;;;5078561;28;20040;-63
2022/12/14 02:57:19;;;;;;;110.60;57.45;;;-6.00;99.90;;;;;;5077422;28;20571;-63
2022/12/14 02:59:48;;;;;;;120.82;60.45;;;-5.90;99.90;;;;;;5080951;28;20048;-63
2022/12/14 03:02:15;;;;;;;115.15;57.95;;;-5.80;99.90;;;;;;5077635;28;20082;-63
2022/12/14 03:04:46;;;;;;;118.90;58.80;;;-5.80;99.90;;;;;;5040731;28;20052;-63
2022/12/14 03:07:36;;;;;;;111.60;58.83;;;-5.70;99.90;;;;;;5067779;28;20458;-64
2022/12/14 03:10:11;;;;;;;111.55;56.92;;;-5.50;99.90;;;;;;5078312;28;20100;-63
2022/12/14 03:12:41;;;;;;;116.80;57.30;;;-5.90;99.90;;;;;;5079176;28;20047;-63
2022/12/14 03:15:10;;;;;;;112.65;55.95;;;-5.70;99.90;;;;;;5076914;28;20126;-63
2022/12/14 03:17:38;;;;;;;110.53;54.83;;;-5.40;99.90;;;;;;5078269;28;20040;-63
2022/12/14 03:20:11;;;;;;;110.10;53.92;;;-5.40;99.90;;;;;;5075326;28;20036;-63
2022/12/14 03:22:48;;;;;;;114.28;55.97;;;-5.70;99.90;;;;;;5079334;28;20120;-63
2022/12/14 03:25:25;;;;;;;110.13;55.38;;;-5.60;99.90;;;;;;5092123;28;20051;-64
2022/12/14 03:28:00;;;;;;;106.50;52.88;;;-5.80;99.90;;;;;;5059836;28;20044;-64
2022/12/14 03:30:29;;;;;;;108.20;54.05;;;-6.10;99.90;;;;;;5077917;28;20055;-64
2022/12/14 03:33:00;;;;;;;110.38;53.45;;;-5.80;99.90;;;;;;5079306;28;20047;-63
2022/12/14 03:35:42;;;;;;;103.90;53.50;;;-6.20;99.90;;;;;;5077513;28;20072;-63
2022/12/14 03:38:25;;;;;;;109.75;54.80;;;-6.00;99.90;;;;;;5075399;28;20032;-63
2022/12/14 03:41:01;;;;;;;112.55;54.60;;;-6.20;99.90;;;;;;5077222;28;20047;-63
2022/12/14 03:43:37;;;;;;;110.68;56.83;;;-6.20;99.90;;;;;;5059611;28;20040;-64
2022/12/14 03:46:13;;;;;;;119.47;55.15;;;-6.10;99.90;;;;;;5092201;28;20118;-65
2022/12/14 03:48:41;;;;;;;122.05;59.97;;;-6.20;99.90;;;;;;5109921;27;20072;-63
2022/12/14 03:51:11;;;;;;;122.60;59.05;;;-6.00;99.90;;;;;;5076440;28;20036;-63
2022/12/14 03:53:39;;;;;;;121.80;59.63;;;-6.10;99.90;;;;;;5076556;28;20547;-64
2022/12/14 03:56:11;;;;;;;123.25;57.88;;;-5.70;99.90;;;;;;5076980;28;20098;-63
2022/12/14 03:58:37;;;;;;;112.88;57.40;;;-5.70;99.90;;;;;;5075373;28;20040;-64
2022/12/14 04:01:11;;;;;;;114.97;54.83;;;-5.70;99.90;;;;;;5077295;28;20040;-63
2022/12/14 04:03:53;;;;;;;111.15;54.00;;;-5.50;99.90;;;;;;5078627;28;20054;-64
2022/12/14 04:06:29;;;;;;;108.28;54.58;;;-5.80;99.90;;;;;;5074839;28;20050;-64
2022/12/14 04:09:42;;;;;;;111.53;56.38;;;-5.70;99.90;;;;;;5076836;28;20277;-63
2022/12/14 04:20:54;;;;;;;99.40;51.88;;;-6.00;99.90;;;;;;5076099;28;20059;-64
2022/12/14 04:26:24;;;;;;;105.72;50.78;;;-6.20;99.90;;;;;;5078255;28;20047;-63
2022/12/14 04:31:56;;;;;;;104.13;51.88;;;-5.90;99.90;;;;;;5066729;28;20531;-63
2022/12/14 04:34:25;;;;;;;94.45;47.70;;;-5.80;99.90;;;;;;5078628;28;20028;-63
2022/12/14 04:36:54;;;;;;;104.68;51.03;;;-6.00;99.90;;;;;;5076192;28;20428;-62
2022/12/14 04:39:37;;;;;;;101.43;51.60;;;-6.10;99.90;;;;;;5075761;28;20081;-62
2022/12/14 04:42:05;;;;;;;101.18;50.25;;;-6.00;99.90;;;;;;5078354;28;20378;-63
2022/12/14 04:44:36;;;;;;;90.95;46.60;;;-5.80;99.90;;;;;;5076385;28;20358;-63
2022/12/14 04:47:06;;;;;;;88.10;47.90;;;-5.70;99.90;;;;;;5076550;28;20104;-64
2022/12/14 04:49:39;;;;;;;95.45;48.63;;;-5.80;99.90;;;;;;5076141;28;20398;-63
2022/12/14 04:52:18;;;;;;;98.05;48.83;;;-6.00;99.90;;;;;;5076723;28;20101;-62
2022/12/14 04:54:50;;;;;;;92.55;49.05;;;-5.80;99.90;;;;;;5077779;28;20046;-63
2022/12/14 04:57:27;;;;;;;96.10;48.15;;;-5.80;99.90;;;;;;5075815;28;20036;-64
2022/12/14 04:59:54;;;;;;;91.35;46.58;;;-6.00;99.90;;;;;;5077375;28;20040;-64
2022/12/14 05:02:39;;;;;;;93.90;47.85;;;-6.20;99.90;;;;;;5078487;28;20036;-64
2022/12/14 05:05:16;;;;;;;93.60;46.00;;;-6.30;99.90;;;;;;5075817;28;20059;-64
2022/12/14 05:08:06;;;;;;;95.60;48.05;;;-6.20;99.90;;;;;;5074063;28;20040;-64
2022/12/14 05:10:42;;;;;;;93.38;46.67;;;-6.00;99.90;;;;;;5076919;28;20127;-64
2022/12/14 05:13:23;;;;;;;97.97;49.13;;;-6.00;99.90;;;;;;5075326;28;20097;-64
2022/12/14 05:15:54;;;;;;;87.72;45.58;;;-6.10;99.90;;;;;;5075318;28;20505;-63
2022/12/14 05:18:21;;;;;;;89.05;46.47;;;-6.40;99.90;;;;;;5106430;27;20625;-62
2022/12/14 05:20:46;;;;;;;95.53;47.75;;;-6.10;99.90;;;;;;5077573;28;20089;-63
2022/12/14 05:23:13;;;;;;;94.28;47.03;;;-6.10;99.90;;;;;;5057975;28;20032;-62
2022/12/14 05:25:39;;;;;;;91.03;47.42;;;-6.40;99.90;;;;;;5077455;28;20496;-62
2022/12/14 05:28:05;;;;;;;95.88;46.15;;;-6.40;99.90;;;;;;5074088;28;20050;-63
2022/12/14 05:30:30;;;;;;;91.05;46.50;;;-6.50;99.90;;;;;;5075434;28;20082;-63
2022/12/14 05:32:56;;;;;;;89.88;46.42;;;-6.60;99.90;;;;;;5080797;28;20079;-62
2022/12/14 05:35:22;;;;;;;100.80;49.10;;;-6.40;99.90;;;;;;5080960;28;20032;-62
2022/12/14 05:37:48;;;;;;;87.60;45.60;;;-6.70;99.90;;;;;;5083059;28;20547;-62
2022/12/14 05:40:13;;;;;;;91.18;47.17;;;-6.40;99.90;;;;;;5076588;28;20047;-64
2022/12/14 05:42:39;;;;;;;88.70;47.05;;;-6.30;99.90;;;;;;5076719;28;20050;-63
2022/12/14 05:45:06;;;;;;;92.03;47.42;;;-6.10;99.90;;;;;;5074009;28;20052;-63
2022/12/14 05:47:31;;;;;;;97.10;48.67;;;-6.10;99.90;;;;;;5057543;28;20545;-62
2022/12/14 05:49:57;;;;;;;96.47;47.55;;;-6.10;99.90;;;;;;5077029;28;20121;-64
2022/12/14 05:52:26;;;;;;;86.45;44.97;;;-6.30;99.90;;;;;;5076649;28;20593;-64
2022/12/14 05:54:52;;;;;;;91.43;46.53;;;-6.30;99.90;;;;;;5075858;28;20076;-64
2022/12/14 05:57:17;;;;;;;92.57;47.30;;;-6.30;99.90;;;;;;5075196;28;20669;-65
2022/12/14 05:59:43;;;;;;;92.93;45.58;;;-6.30;99.90;;;;;;5073548;28;20344;-64
2022/12/14 06:02:09;;;;;;;88.85;46.38;;;-6.20;99.90;;;;;;5074231;28;20044;-64
2022/12/14 06:04:35;;;;;;;94.93;47.38;;;-6.40;99.90;;;;;;5061867;28;20090;-63
2022/12/14 06:07:00;;;;;;;95.60;46.33;;;-6.40;99.90;;;;;;5077027;28;20044;-64
2022/12/14 06:09:26;;;;;;;97.63;48.60;;;-6.30;99.90;;;;;;5073263;28;20174;-64
2022/12/14 06:11:52;;;;;;;98.00;47.67;;;-6.40;99.90;;;;;;5091326;28;20401;-63
2022/12/14 06:14:18;;;;;;;90.07;47.33;;;-6.10;99.90;;;;;;5104568;28;20048;-64
2022/12/14 06:16:45;;;;;;;94.50;47.33;;;-6.30;99.90;;;;;;5072376;28;21638;-63
2022/12/14 06:19:12;;;;;;;95.53;47.17;;;-6.20;99.90;;;;;;5057325;28;20044;-64
2022/12/14 06:21:40;;;;;;;93.97;47.53;;;-6.50;99.90;;;;;;5076033;28;20130;-65
2022/12/14 06:24:07;;;;;;;94.20;46.88;;;-6.20;99.90;;;;;;5103059;28;20497;-64
2022/12/14 06:26:39;;;;;;;98.80;48.55;;;-6.40;99.90;;;;;;5081291;28;20292;-63
2022/12/14 06:29:23;;;;;;;105.53;50.00;;;-6.60;99.90;;;;;;5082905;28;20047;-63
2022/12/14 06:31:49;;;;;;;104.97;49.78;;;-6.60;99.90;;;;;;5081986;28;20409;-62
2022/12/14 06:34:15;;;;;;;100.15;50.85;;;-6.40;99.90;;;;;;5078238;28;20489;-63
2022/12/14 06:36:42;;;;;;;102.53;49.47;;;-6.50;99.90;;;;;;5077810;28;20036;-63
2022/12/14 06:39:11;;;;;;;100.30;47.97;;;-6.20;99.90;;;;;;5076233;28;20054;-63
2022/12/14 06:41:39;;;;;;;96.85;48.53;;;-6.50;99.90;;;;;;5075219;28;20132;-63
2022/12/14 06:44:10;;;;;;;101.10;46.50;;;-6.60;99.90;;;;;;5059487;28;20120;-65
2022/12/14 06:46:36;;;;;;;97.40;47.53;;;-6.30;99.90;;;;;;5072177;28;20517;-63
2022/12/14 06:49:03;;;;;;;85.25;44.55;;;-6.50;99.90;;;;;;5072824;28;20126;-63
2022/12/14 06:51:29;;;;;;;88.88;44.70;;;-6.30;99.90;;;;;;5085356;28;20545;-63
2022/12/14 06:53:56;;;;;;;81.93;41.85;;;-6.10;99.90;;;;;;5069778;28;20131;-62
2022/12/14 06:56:24;;;;;;;80.03;41.05;;;-6.10;99.90;;;;;;5088133;28;20074;-62
2022/12/14 06:58:52;;;;;;;80.15;40.38;;;-6.10;99.90;;;;;;5085654;28;20039;-62
2022/12/14 07:01:20;;;;;;;86.13;40.60;;;-6.10;99.90;;;;;;5086291;28;20028;-62
2022/12/14 07:03:48;;;;;;;80.00;39.58;;;-6.10;99.90;;;;;;5113236;27;20039;-63
2022/12/14 07:06:13;;;;;;;76.60;39.95;;;-6.30;99.90;;;;;;5085821;28;20139;-66
2022/12/14 07:08:40;;;;;;;73.05;38.28;;;-6.10;99.90;;;;;;5087998;28;20522;-62
2022/12/14 07:11:16;;;;;;;76.45;39.30;;;-6.20;99.90;;;;;;5084136;28;20044;-62
2022/12/14 07:13:42;;;;;;;71.40;37.42;;;-6.00;99.90;;;;;;5081756;28;20067;-64
2022/12/14 07:16:15;;;;;;;70.70;36.67;;;-6.10;99.90;;;;;;5079820;28;20197;-65
2022/12/14 07:18:40;;;;;;;65.63;34.60;;;-6.20;99.90;;;;;;5075648;28;20035;-63
2022/12/14 07:21:08;;;;;;;70.95;34.95;;;-6.10;99.90;;;;;;5078171;28;20046;-65
2022/12/14 07:23:36;;;;;;;64.88;34.30;;;-6.10;99.90;;;;;;5109756;27;20050;-64
2022/12/14 07:26:11;;;;;;;65.75;34.13;;;-6.10;99.90;;;;;;5077766;28;20083;-64
2022/12/14 07:28:37;;;;;;;65.40;34.20;;;-6.10;99.90;;;;;;5077803;28;20055;-64
2022/12/14 07:31:06;;;;;;;64.72;33.35;;;-6.20;99.90;;;;;;5107871;27;20093;-64
2022/12/14 07:33:33;;;;;;;66.88;34.10;;;-6.20;99.90;;;;;;5077561;28;20047;-65
2022/12/14 07:36:02;;;;;;;63.20;33.78;;;-6.30;99.90;;;;;;5074016;28;20101;-64
2022/12/14 07:38:27;;;;;;;63.80;33.88;;;-6.30;99.90;;;;;;5077462;28;20039;-64
2022/12/14 07:40:53;;;;;;;63.72;33.97;;;-6.50;99.90;;;;;;5080517;28;20562;-65
2022/12/14 07:43:19;;;;;;;63.85;32.40;;;-6.60;99.90;;;;;;5076743;28;20167;-64
2022/12/14 07:45:44;;;;;;;65.43;32.85;;;-6.70;99.90;;;;;;5078674;28;20044;-64
2022/12/14 07:48:10;;;;;;;63.40;33.25;;;-6.60;99.90;;;;;;5080032;28;20044;-64
2022/12/14 07:50:35;;;;;;;63.60;32.13;;;-6.50;99.90;;;;;;5058002;28;20089;-63
2022/12/14 07:53:01;;;;;;;68.07;35.00;;;-6.50;99.90;;;;;;5078734;28;20048;-65
2022/12/14 07:55:28;;;;;;;67.00;35.30;;;-6.50;99.90;;;;;;5062553;28;20048;-64
2022/12/14 07:57:54;;;;;;;69.45;35.15;;;-6.70;99.90;;;;;;5078213;28;20652;-64
2022/12/14 08:00:20;;;;;;;68.15;34.67;;;-6.70;99.90;;;;;;5081248;28;20130;-64
2022/12/14 08:02:46;;;;;;;68.82;35.90;;;-6.70;99.90;;;;;;5078535;28;20126;-64
2022/12/14 08:05:12;;;;;;;67.13;34.40;;;-6.90;99.90;;;;;;5078306;28;20040;-65
2022/12/14 08:07:37;;;;;;;69.47;36.50;;;-6.80;99.90;;;;;;5078587;28;20040;-63
2022/12/14 08:10:03;;;;;;;72.50;36.45;;;-6.90;99.90;;;;;;5079432;28;20048;-63
2022/12/14 08:12:29;;;;;;;66.90;32.40;;;-6.80;99.90;;;;;;5077786;28;20040;-64
2022/12/14 08:14:55;;;;;;;67.97;35.20;;;-6.80;99.90;;;;;;5077192;28;20489;-64
2022/12/14 08:17:20;;;;;;;67.50;34.95;;;-6.80;99.90;;;;;;5083458;28;20040;-62
2022/12/14 08:19:46;;;;;;;71.00;36.00;;;-6.70;99.90;;;;;;5087669;28;20035;-63
2022/12/14 08:22:12;;;;;;;73.15;36.40;;;-6.80;99.90;;;;;;5085881;28;20090;-62
2022/12/14 08:24:37;;;;;;;67.45;34.47;;;-6.60;99.90;;;;;;5086032;28;20066;-62
2022/12/14 08:27:03;;;;;;;69.05;34.45;;;-6.70;99.90;;;;;;5087223;28;20040;-64
2022/12/14 08:29:29;;;;;;;70.45;35.22;;;-6.60;99.90;;;;;;5087641;28;20074;-61
2022/12/14 08:31:55;;;;;;;67.03;35.47;;;-6.60;99.90;;;;;;5087179;28;20063;-64
2022/12/14 08:34:21;;;;;;;69.28;33.85;;;-6.60;99.90;;;;;;5087053;28;20043;-62
2022/12/14 08:36:47;;;;;;;68.18;34.33;;;-6.50;99.90;;;;;;5086846;28;20047;-61
2022/12/14 08:39:14;;;;;;;66.50;34.65;;;-6.50;99.90;;;;;;5116589;27;20066;-62
2022/12/14 08:41:40;;;;;;;72.20;34.60;;;-6.50;99.90;;;;;;5086845;28;20060;-62
2022/12/14 08:44:08;;;;;;;69.68;34.20;;;-6.40;99.90;;;;;;5087763;28;20046;-61
2022/12/14 08:46:36;;;;;;;68.10;35.33;;;-6.40;99.90;;;;;;5087734;28;20142;-62
2022/12/14 08:49:02;;;;;;;68.60;36.55;;;-6.30;99.90;;;;;;5087139;28;20052;-63
2022/12/14 08:51:28;;;;;;;71.22;35.13;;;-6.20;99.90;;;;;;5118016;27;20055;-62
2022/12/14 08:53:55;;;;;;;70.88;37.13;;;-6.20;99.90;;;;;;5087063;28;20043;-62
2022/12/14 08:56:23;;;;;;;72.15;35.53;;;-6.30;99.90;;;;;;5086815;28;20043;-62
2022/12/14 08:58:49;;;;;;;64.93;33.22;;;-6.20;99.90;;;;;;5087764;28;20045;-63
2022/12/14 09:01:16;;;;;;;64.60;33.03;;;-6.10;99.90;;;;;;5086181;28;20390;-63
2022/12/14 09:03:43;;;;;;;60.47;33.05;;;-6.10;99.90;;;;;;5084642;28;20052;-62
2022/12/14 09:06:12;;;;;;;65.47;33.58;;;-5.90;99.90;;;;;;5085078;28;20051;-62
2022/12/14 09:08:38;;;;;;;64.30;34.15;;;-5.80;99.90;;;;;;5084152;28;20031;-62
2022/12/14 09:11:05;;;;;;;63.05;31.75;;;-5.80;99.90;;;;;;5084971;28;20516;-63
2022/12/14 09:13:31;;;;;;;62.95;32.50;;;-5.80;99.90;;;;;;5076130;28;20047;-63
2022/12/14 09:16:16;;;;;;;62.35;31.38;;;-5.80;99.90;;;;;;5078228;28;20048;-62
2022/12/14 09:18:43;;;;;;;60.40;29.65;;;-5.70;99.90;;;;;;5078665;28;20077;-64
2022/12/14 09:21:09;;;;;;;59.78;31.90;;;-5.60;99.90;;;;;;5079400;28;20115;-64
2022/12/14 09:23:36;;;;;;;61.42;30.48;;;-5.40;99.90;;;;;;5076755;28;20044;-65
2022/12/14 09:26:11;;;;;;;61.67;31.35;;;-5.40;99.90;;;;;;5103808;27;20086;-64
2022/12/14 09:28:39;;;;;;;54.97;30.00;;;-5.30;99.90;;;;;;5075172;28;20048;-64
2022/12/14 09:31:11;;;;;;;57.25;30.70;;;-5.20;99.90;;;;;;5074290;28;20501;-64
2022/12/14 09:33:38;;;;;;;51.92;28.13;;;-5.30;99.90;;;;;;5075354;28;20513;-64
2022/12/14 09:36:11;;;;;;;51.03;27.65;;;-5.20;99.90;;;;;;5074820;28;20048;-64
2022/12/14 09:38:38;;;;;;;52.85;28.88;;;-5.10;99.90;;;;;;5075564;28;20179;-64
2022/12/14 09:41:19;;;;;;;53.00;26.85;;;-4.90;99.90;;;;;;5102116;27;20043;-64
2022/12/14 09:43:54;;;;;;;49.70;28.65;;;-4.80;99.90;;;;;;5075205;28;20147;-64
2022/12/14 09:46:22;;;;;;;50.42;28.10;;;-4.90;99.90;;;;;;5074983;28;20579;-64
2022/12/14 09:48:50;;;;;;;46.10;26.20;;;-4.70;99.90;;;;;;5077844;28;20464;-65
2022/12/14 09:51:20;;;;;;;47.60;25.40;;;-4.60;99.90;;;;;;5078099;28;20044;-64
2022/12/14 09:53:49;;;;;;;47.20;24.88;;;-4.50;99.90;;;;;;5077196;28;20314;-63
2022/12/14 09:56:18;;;;;;;44.13;25.30;;;-4.40;99.90;;;;;;5077628;28;20460;-64
2022/12/14 09:58:53;;;;;;;46.17;25.15;;;-4.20;99.90;;;;;;5077736;28;20047;-64
2022/12/14 10:01:22;;;;;;;44.20;25.42;;;-4.10;99.90;;;;;;5074798;28;20447;-64
2022/12/14 10:04:04;;;;;;;40.58;21.80;;;-4.00;99.90;;;;;;5077045;28;20044;-63
2022/12/14 10:06:43;;;;;;;39.47;22.00;;;-3.40;99.90;;;;;;5079067;28;20108;-63
2022/12/14 10:09:27;;;;;;;39.05;22.15;;;-2.40;99.90;;;;;;5103363;28;20048;-63
2022/12/14 10:12:02;;;;;;;;;;;-1.40;99.90;;;;;;5076164;28;20114;-64
2022/12/14 10:15:06;;;;;;;34.05;21.05;;;-0.60;99.90;;;;;;5104740;28;19920;-66
2022/12/14 10:17:47;;;;;;;32.30;21.98;;;0.20;99.90;;;;;;5058276;28;20069;-65
2022/12/14 10:20:20;;;;;;;38.00;23.48;;;0.90;99.90;;;;;;5057915;28;20067;-64
2022/12/14 10:22:51;;;;;;;34.00;22.17;;;1.10;99.90;;;;;;5076842;28;20144;-63
2022/12/14 10:25:24;;;;;;;33.58;22.65;;;1.50;99.90;;;;;;5075415;28;20051;-63
2022/12/14 10:28:01;;;;;;;;;;;1.80;99.90;;;;;;5107559;27;20283;-63
2022/12/14 10:30:28;;;;;;;30.92;20.35;;;1.70;99.90;;;;;;5081059;28;19943;-64
2022/12/14 10:33:28;;;;;;;29.92;20.73;;;2.00;99.90;;;;;;5091344;28;20079;-64
2022/12/14 10:36:37;;;;;;;29.88;19.80;;;2.10;99.90;;;;;;5079059;28;20432;-64
2022/12/14 10:39:18;;;;;;;28.65;19.73;;;2.40;99.90;;;;;;5000998;28;20037;-63
2022/12/14 10:41:57;;;;;;;32.15;20.55;;;2.40;99.90;;;;;;5074092;28;20306;-64
2022/12/14 10:44:32;;;;;;;28.63;20.50;;;2.90;99.90;;;;;;5085309;28;20046;-64
2022/12/14 10:47:04;;;;;;;28.80;20.30;;;3.40;99.90;;;;;;5113803;27;20627;-61
2022/12/14 10:49:48;;;;;;;28.80;19.48;;;3.70;99.90;;;;;;5083180;28;20096;-64
2022/12/14 10:52:19;;;;;;;28.85;20.25;;;3.90;99.90;;;;;;5084861;28;20027;-64
2022/12/14 10:54:59;;;;;;;26.83;20.08;;;4.20;99.90;;;;;;5080009;28;20075;-62
2022/12/14 10:57:26;;;;;;;27.25;19.83;;;4.40;99.90;;;;;;5108186;27;20093;-64
2022/12/14 10:59:54;;;;;;;28.20;19.50;;;4.70;99.90;;;;;;5078026;28;20131;-64
2022/12/14 11:02:21;;;;;;;25.75;19.92;;;4.80;99.90;;;;;;5110719;27;20073;-62
2022/12/14 11:04:50;;;;;;;25.67;17.88;;;4.50;99.90;;;;;;5080571;28;20047;-63
2022/12/14 11:07:21;;;;;;;22.90;17.27;;;4.50;99.90;;;;;;5080892;28;20044;-64
2022/12/14 11:09:48;;;;;;;25.83;17.75;;;4.60;99.90;;;;;;5095621;28;20036;-63
2022/12/14 11:12:24;;;;;;;24.73;17.38;;;4.90;99.90;;;;;;5110269;27;20420;-64
2022/12/14 11:15:05;;;;;;;24.73;17.73;;;4.90;99.90;;;;;;5050925;28;20363;-64
2022/12/14 11:17:37;;;;;;;24.38;18.80;;;5.10;99.90;;;;;;5078750;28;20619;-64
2022/12/14 11:20:20;;;;;;;23.17;15.90;;;5.00;99.90;;;;;;5077055;28;20036;-65
2022/12/14 11:23:04;;;;;;;21.33;15.80;;;5.00;99.90;;;;;;5112079;27;20778;-65
2022/12/14 11:25:42;;;;;;;23.23;16.92;;;5.00;99.90;;;;;;5080467;28;20048;-63
2022/12/14 11:28:51;;;;;;;26.95;18.13;;;5.10;99.90;;;;;;5081900;28;20043;-63
2022/12/14 11:31:19;;;;;;;23.40;16.95;;;4.90;86.90;;;;;;5058687;28;20232;-64
2022/12/14 11:33:51;;;;;;;24.35;17.95;;;5.10;99.90;;;;;;5079092;28;20134;-64
2022/12/14 11:36:36;;;;;;;20.48;15.55;;;5.40;99.90;;;;;;5110000;27;20051;-64
2022/12/14 11:39:06;;;;;;;21.10;15.73;;;5.20;99.90;;;;;;5081504;28;20040;-63
2022/12/14 11:41:37;;;;;;;21.55;16.27;;;5.10;99.90;;;;;;5079855;28;20047;-64
2022/12/14 11:44:15;;;;;;;22.52;16.55;;;5.20;99.90;;;;;;5081174;28;20537;-64
2022/12/14 11:46:49;;;;;;;23.20;16.83;;;5.20;99.90;;;;;;5081439;28;20231;-65
2022/12/14 11:49:20;;;;;;;21.30;16.23;;;5.20;99.90;;;;;;5078645;28;20051;-63
2022/12/14 11:52:03;;;;;;;20.75;15.75;;;5.40;99.90;;;;;;5080610;28;20051;-64
2022/12/14 11:54:30;;;;;;;20.00;15.70;;;5.50;99.90;;;;;;5063672;28;20409;-65
2022/12/14 11:57:12;;;;;;;22.67;17.25;;;5.40;99.90;;;;;;5080798;28;20461;-64
2022/12/14 11:59:47;;;;;;;23.52;18.08;;;5.40;99.90;;;;;;5079421;28;20146;-65
2022/12/14 12:02:15;;;;;;;21.40;16.92;;;5.50;99.90;;;;;;5078501;28;20039;-66
2022/12/14 12:04:45;;;;;;;22.55;17.67;;;5.80;99.90;;;;;;5058465;28;20480;-66
2022/12/14 12:07:29;;;;;;;23.50;18.10;;;5.90;99.90;;;;;;5059709;28;20067;-65
2022/12/14 12:10:11;;;;;;;24.40;18.13;;;5.80;93.20;;;;;;5077864;28;20505;-64
2022/12/14 12:12:45;;;;;;;24.02;18.23;;;5.70;99.90;;;;;;5078193;28;20527;-66
2022/12/14 12:15:22;;;;;;;23.60;17.48;;;5.60;99.90;;;;;;5066634;28;20042;-65
2022/12/14 12:17:57;;;;;;;22.77;17.92;;;5.40;99.10;;;;;;5080477;28;20035;-64
2022/12/14 12:20:27;;;;;;;26.33;19.75;;;5.40;99.90;;;;;;5076633;28;20050;-65
2022/12/14 12:22:59;;;;;;;22.85;17.67;;;5.10;94.60;;;;;;5078966;28;20612;-64
2022/12/14 12:25:28;;;;;;;23.17;18.40;;;5.00;99.90;;;;;;5077917;28;20036;-64
2022/12/14 12:28:16;;;;;;;23.73;19.02;;;5.20;99.90;;;;;;5110976;27;20048;-62
2022/12/14 12:30:47;;;;;;;23.35;18.30;;;4.80;85.50;;;;;;5082906;28;20044;-63
2022/12/14 12:33:27;;;;;;;25.17;19.15;;;4.60;99.90;;;;;;5080912;28;20129;-63
2022/12/14 12:35:55;;;;;;;24.23;19.33;;;4.30;99.90;;;;;;5079642;28;20384;-64
2022/12/14 12:38:52;;;;;;;27.73;20.00;;;3.70;99.90;;;;;;5080542;28;20072;-63
2022/12/14 12:41:24;;;;;;;26.55;19.48;;;3.40;99.90;;;;;;5081345;28;20035;-64
2022/12/14 12:43:55;;;;;;;23.40;18.35;;;3.10;99.90;;;;;;5079569;28;20494;-64
2022/12/14 12:46:27;;;;;;;27.73;19.00;;;2.90;99.90;;;;;;5080810;28;20553;-65
2022/12/14 12:48:56;;;;;;;25.35;19.95;;;2.80;99.90;;;;;;5080938;28;20032;-63
2022/12/14 12:51:26;;;;;;;28.67;20.40;;;2.60;99.90;;;;;;5077768;28;20046;-62
2022/12/14 12:54:03;;;;;;;26.10;19.23;;;2.20;99.90;;;;;;5081469;28;20424;-62
2022/12/14 12:56:40;;;;;;;30.35;20.80;;;2.00;99.90;;;;;;5081715;28;20052;-65
2022/12/14 12:59:12;;;;;;;28.48;21.08;;;2.20;99.90;;;;;;5080982;28;20123;-63
2022/12/14 13:01:44;;;;;;;24.17;18.45;;;2.50;99.90;;;;;;5080312;28;20162;-64